createdAt,value
2018-04-27T00:01:11.448Z,65.77
2018-04-27T00:04:14.003Z,65.92
2018-04-27T00:07:16.484Z,67.01
2018-04-27T00:10:19.012Z,67.04
2018-04-27T00:13:21.573Z,67.22
2018-04-27T00:16:24.123Z,67.26
2018-04-27T00:19:26.631Z,67.83
2018-04-27T00:22:29.123Z,68.24
2018-04-27T00:25:31.647Z,67.64
2018-04-27T00:28:34.153Z,68.94
2018-04-27T00:31:36.637Z,68.68
2018-04-27T00:34:39.127Z,69.10
2018-04-27T00:37:41.603Z,69.84
2018-04-27T00:40:44.111Z,68.56
2018-04-27T00:43:46.635Z,67.85
2018-04-27T00:46:49.134Z,67.37
2018-04-27T00:49:51.632Z,67.87
2018-04-27T00:53:05.996Z,67.26
2018-04-27T00:56:08.465Z,67.23
2018-04-27T00:59:10.974Z,67.49
2018-04-27T01:02:13.473Z,67.46
2018-04-27T01:05:15.984Z,68.36
2018-04-27T01:08:18.481Z,67.75
2018-04-27T01:11:20.992Z,69.07
2018-04-27T01:14:23.494Z,68.85
2018-04-27T01:17:25.997Z,69.19
2018-04-27T01:20:28.487Z,69.69
2018-04-27T01:23:30.988Z,69.05
2018-04-27T01:26:33.464Z,68.25
2018-04-27T01:29:35.968Z,68.65
2018-04-27T01:32:38.443Z,68.93
2018-04-27T01:35:40.957Z,68.75
2018-04-27T01:38:43.435Z,68.65
2018-04-27T01:41:45.932Z,68.82
2018-04-27T01:44:48.403Z,69.47
2018-04-27T01:47:50.890Z,69.15
2018-04-27T01:50:53.420Z,69.22
2018-04-27T01:53:55.927Z,69.10
2018-04-27T01:56:58.410Z,68.58
2018-04-27T02:00:00.920Z,68.10
2018-04-27T02:03:03.436Z,70.12
2018-04-27T02:06:05.961Z,70.40
2018-04-27T02:09:08.499Z,69.75
2018-04-27T02:12:11.046Z,69.62
2018-04-27T02:15:13.553Z,69.33
2018-04-27T02:18:16.106Z,68.95
2018-04-27T02:21:18.582Z,68.86
2018-04-27T02:24:21.091Z,68.59
2018-04-27T02:27:23.571Z,69.11
2018-04-27T02:30:26.068Z,69.12
2018-04-27T02:33:28.590Z,69.10
2018-04-27T02:36:31.092Z,69.47
2018-04-27T02:39:33.628Z,69.56
2018-04-27T02:42:36.150Z,69.58
2018-04-27T02:45:38.661Z,69.27
2018-04-27T02:48:41.213Z,69.15
2018-04-27T02:51:43.689Z,70.10
2018-04-27T02:54:46.180Z,70.07
2018-04-27T02:57:48.684Z,70.23
2018-04-27T03:00:51.187Z,69.84
2018-04-27T03:03:53.705Z,70.11
2018-04-27T03:06:56.225Z,70.34
2018-04-27T03:09:58.744Z,69.86
2018-04-27T03:13:01.366Z,70.02
2018-04-27T03:16:03.865Z,70.31
2018-04-27T03:19:06.344Z,69.86
2018-04-27T03:22:08.863Z,70.18
2018-04-27T03:25:11.383Z,69.79
2018-04-27T03:28:13.875Z,69.62
2018-04-27T03:31:16.374Z,69.84
2018-04-27T03:34:18.942Z,69.45
2018-04-27T03:37:21.398Z,69.17
2018-04-27T03:40:23.908Z,69.83
2018-04-27T03:43:26.417Z,70.48
2018-04-27T03:46:28.955Z,70.24
2018-04-27T03:49:31.459Z,69.79
2018-04-27T03:52:34.007Z,70.12
2018-04-27T03:55:36.495Z,69.62
2018-04-27T03:58:39.028Z,69.67
2018-04-27T04:01:53.369Z,69.64
2018-04-27T04:05:07.508Z,69.52
2018-04-27T04:08:10.016Z,69.74
2018-04-27T04:11:12.518Z,70.38
2018-04-27T04:14:15.006Z,69.86
2018-04-27T04:17:17.496Z,69.76
2018-04-27T04:20:19.992Z,69.63
2018-04-27T04:23:22.480Z,69.74
2018-04-27T04:26:24.997Z,69.89
2018-04-27T04:29:27.475Z,69.87
2018-04-27T04:32:29.965Z,69.70
2018-04-27T04:35:32.459Z,70.18
2018-04-27T04:38:35.123Z,69.45
2018-04-27T04:41:37.619Z,69.68
2018-04-27T04:44:40.159Z,69.73
2018-04-27T04:47:42.667Z,69.58
2018-04-27T04:50:46.362Z,69.20
2018-04-27T04:53:48.882Z,69.41
2018-04-27T04:56:51.402Z,69.29
2018-04-27T04:59:53.905Z,69.25
2018-04-27T05:02:56.450Z,68.99
2018-04-27T05:05:58.955Z,68.81
2018-04-27T05:09:01.444Z,68.73
2018-04-27T05:12:03.933Z,68.74
2018-04-27T05:15:06.448Z,68.64
2018-04-27T05:18:11.512Z,68.58
2018-04-27T05:21:14.000Z,68.75
2018-04-27T05:24:16.584Z,68.77
2018-04-27T05:27:19.052Z,68.63
2018-04-27T05:30:21.552Z,68.47
2018-04-27T05:33:24.028Z,68.81
2018-04-27T05:36:26.504Z,68.75
2018-04-27T05:39:28.979Z,68.80
2018-04-27T05:42:31.467Z,68.39
2018-04-27T05:45:33.996Z,68.11
2018-04-27T05:48:36.518Z,67.88
2018-04-27T05:51:39.002Z,67.56
2018-04-27T05:54:41.494Z,67.19
2018-04-27T05:57:44.011Z,67.23
2018-04-27T06:00:46.660Z,66.81
2018-04-27T06:04:00.935Z,66.75
2018-04-27T06:07:03.469Z,66.31
2018-04-27T06:10:06.046Z,66.10
2018-04-27T06:13:08.506Z,65.73
2018-04-27T06:16:11.081Z,65.79
2018-04-27T06:19:13.587Z,65.56
2018-04-27T06:22:16.080Z,65.34
2018-04-27T06:25:18.631Z,65.21
2018-04-27T06:28:21.134Z,65.20
2018-04-27T06:31:23.626Z,64.81
2018-04-27T06:34:26.157Z,64.62
2018-04-27T06:37:28.643Z,64.24
2018-04-27T06:40:31.150Z,63.82
2018-04-27T06:43:34.616Z,63.09
2018-04-27T06:46:37.117Z,62.65
2018-04-27T06:49:39.632Z,62.39
2018-04-27T06:52:42.179Z,62.55
2018-04-27T06:55:44.775Z,62.38
2018-04-27T06:58:47.263Z,62.58
2018-04-27T07:01:49.797Z,62.09
2018-04-27T07:04:52.285Z,61.96
2018-04-27T07:07:54.767Z,61.52
2018-04-27T07:10:57.280Z,61.04
2018-04-27T07:13:59.767Z,61.49
2018-04-27T07:17:02.424Z,59.89
2018-04-27T07:20:04.863Z,59.37
2018-04-27T07:23:07.454Z,58.56
2018-04-27T07:26:10.141Z,58.33
2018-04-27T07:29:12.647Z,58.18
2018-04-27T07:32:15.169Z,57.56
2018-04-27T07:35:17.678Z,56.87
2018-04-27T07:38:20.166Z,56.09
2018-04-27T07:41:22.724Z,55.06
2018-04-27T07:44:25.173Z,55.67
2018-04-27T07:47:27.706Z,54.99
2018-04-27T07:50:30.268Z,54.39
2018-04-27T07:53:32.767Z,53.53
2018-04-27T07:56:35.262Z,52.28
2018-04-27T07:59:37.795Z,52.43
2018-04-27T08:02:40.279Z,52.74
2018-04-27T08:05:42.794Z,51.79
2018-04-27T08:08:45.274Z,49.57
2018-04-27T08:11:47.758Z,48.93
2018-04-27T08:14:50.283Z,47.64
2018-04-27T08:17:52.767Z,46.06
2018-04-27T08:20:55.279Z,45.85
2018-04-27T08:23:57.820Z,45.87
2018-04-27T08:27:00.380Z,46.51
2018-04-27T08:30:02.881Z,46.68
2018-04-27T08:33:05.402Z,46.04
2018-04-27T08:36:08.020Z,43.55
2018-04-27T08:39:10.464Z,43.38
2018-04-27T08:42:12.988Z,43.94
2018-04-27T08:45:15.480Z,44.19
2018-04-27T08:48:17.965Z,43.80
2018-04-27T08:51:20.494Z,43.02
2018-04-27T08:54:23.026Z,42.18
2018-04-27T08:57:25.532Z,42.15
2018-04-27T09:00:28.038Z,42.82
2018-04-27T09:03:30.593Z,41.55
2018-04-27T09:06:35.548Z,41.67
2018-04-27T09:09:38.114Z,42.48
2018-04-27T09:12:40.641Z,42.67
2018-04-27T09:15:43.151Z,42.04
2018-04-27T09:18:45.817Z,41.82
2018-04-27T09:21:48.316Z,40.42
2018-04-27T09:24:50.785Z,39.87
2018-04-27T09:27:53.293Z,40.10
2018-04-27T09:30:55.794Z,40.37
2018-04-27T09:33:58.306Z,39.93
2018-04-27T09:37:00.799Z,38.57
2018-04-27T09:40:03.304Z,38.95
2018-04-27T09:43:05.838Z,37.95
2018-04-27T09:46:08.335Z,37.38
2018-04-27T09:49:10.821Z,37.63
2018-04-27T09:52:13.370Z,37.63
2018-04-27T09:55:15.869Z,37.05
2018-04-27T09:58:18.401Z,37.16
2018-04-27T10:01:20.913Z,38.15
2018-04-27T10:04:23.437Z,37.39
2018-04-27T10:07:25.914Z,37.75
2018-04-27T10:10:28.535Z,37.88
2018-04-27T10:13:31.031Z,38.09
2018-04-27T10:16:33.538Z,37.73
2018-04-27T10:19:40.805Z,35.33
2018-04-27T10:22:43.341Z,34.92
2018-04-27T10:25:45.841Z,35.13
2018-04-27T10:28:48.357Z,35.70
2018-04-27T10:31:50.879Z,35.64
2018-04-27T10:34:53.399Z,34.53
2018-04-27T10:37:55.951Z,34.73
2018-04-27T10:40:58.463Z,32.93
2018-04-27T10:44:00.997Z,32.92
2018-04-27T10:47:03.501Z,32.39
2018-04-27T10:50:06.097Z,32.21
2018-04-27T10:53:08.667Z,31.17
2018-04-27T10:56:11.246Z,32.23
2018-04-27T10:59:13.738Z,31.50
2018-04-27T11:02:16.280Z,31.33
2018-04-27T11:05:18.792Z,32.22
2018-04-27T11:08:21.328Z,31.59
2018-04-27T11:11:24.146Z,31.87
2018-04-27T11:14:26.661Z,30.52
2018-04-27T11:17:29.393Z,31.85
2018-04-27T11:20:31.987Z,32.50
2018-04-27T11:23:34.506Z,32.98
2018-04-27T11:26:37.096Z,33.79
2018-04-27T11:29:39.591Z,34.46
2018-04-27T11:32:42.062Z,34.07
2018-04-27T11:35:44.569Z,32.75
2018-04-27T11:38:47.246Z,32.52
2018-04-27T11:41:49.767Z,32.70
2018-04-27T11:44:52.546Z,31.71
2018-04-27T11:47:55.217Z,32.06
2018-04-27T11:50:57.892Z,30.51
2018-04-27T11:54:00.458Z,31.14
2018-04-27T11:57:03.756Z,31.39
2018-04-27T12:00:06.312Z,31.69
2018-04-27T12:03:08.794Z,31.40
2018-04-27T12:06:11.340Z,31.66
2018-04-27T12:09:13.877Z,32.17
2018-04-27T12:12:17.259Z,32.36
2018-04-27T12:15:19.951Z,33.60
2018-04-27T12:18:22.852Z,33.16
2018-04-27T12:21:25.400Z,34.37
2018-04-27T12:24:27.980Z,33.68
2018-04-27T12:27:30.560Z,33.81
2018-04-27T12:30:33.160Z,32.49
2018-04-27T12:33:35.716Z,32.53
2018-04-27T12:36:38.274Z,32.48
2018-04-27T12:39:40.805Z,33.34
2018-04-27T12:42:43.358Z,32.78
2018-04-27T12:45:45.967Z,32.44
2018-04-27T12:48:48.581Z,32.25
2018-04-27T12:51:51.276Z,32.24
2018-04-27T12:54:53.806Z,32.96
2018-04-27T12:57:56.365Z,30.58
2018-04-27T13:00:58.951Z,31.21
2018-04-27T13:04:01.463Z,30.80
2018-04-27T13:07:03.993Z,31.36
2018-04-27T13:10:06.475Z,30.57
2018-04-27T13:13:09.064Z,30.80
2018-04-27T13:16:11.584Z,30.73
2018-04-27T13:19:14.206Z,30.72
2018-04-27T13:22:16.743Z,30.78
2018-04-27T13:25:19.354Z,30.68
2018-04-27T13:28:21.897Z,30.50
2018-04-27T13:31:24.486Z,30.43
2018-04-27T13:34:27.026Z,30.80
2018-04-27T13:37:29.659Z,30.76
2018-04-27T13:40:32.281Z,31.01
2018-04-27T13:43:34.986Z,30.51
2018-04-27T13:46:37.659Z,31.62
2018-04-27T13:49:40.936Z,32.22
2018-04-27T13:52:43.646Z,31.45
2018-04-27T13:55:46.251Z,31.47
2018-04-27T13:58:48.781Z,31.66
2018-04-27T14:01:51.302Z,31.68
2018-04-27T14:04:53.853Z,32.04
2018-04-27T14:07:56.450Z,32.06
2018-04-27T14:10:59.254Z,32.49
2018-04-27T14:14:01.861Z,34.16
2018-04-27T14:17:05.131Z,32.73
2018-04-27T14:20:08.786Z,31.77
2018-04-27T14:23:11.317Z,31.67
2018-04-27T14:26:14.715Z,31.41
2018-04-27T14:29:22.499Z,32.47
2018-04-27T14:32:26.136Z,32.38
2018-04-27T14:35:28.779Z,31.45
2018-04-27T14:38:31.395Z,31.67
2018-04-27T14:41:33.970Z,31.86
2018-04-27T14:44:36.576Z,32.20
2018-04-27T14:47:39.189Z,33.47
2018-04-27T14:50:41.783Z,31.94
2018-04-27T14:53:44.476Z,32.28
2018-04-27T14:56:47.082Z,33.24
2018-04-27T14:59:50.305Z,33.36
2018-04-27T15:02:52.865Z,33.03
2018-04-27T15:05:55.562Z,34.08
2018-04-27T15:08:58.170Z,32.70
2018-04-27T15:12:00.901Z,32.63
2018-04-27T15:15:04.467Z,32.94
2018-04-27T15:18:07.267Z,33.59
2018-04-27T15:21:09.952Z,33.16
2018-04-27T15:24:12.625Z,34.76
2018-04-27T15:27:15.152Z,32.99
2018-04-27T15:30:18.350Z,32.09
2018-04-27T15:33:20.910Z,32.57
2018-04-27T15:36:23.434Z,33.07
2018-04-27T15:39:25.969Z,35.44
2018-04-27T15:42:29.348Z,32.69
2018-04-27T15:45:31.911Z,33.30
2018-04-27T15:48:34.542Z,34.22
2018-04-27T15:51:37.216Z,33.71
2018-04-27T15:54:39.933Z,34.08
2018-04-27T15:57:42.597Z,33.47
2018-04-27T16:00:45.118Z,34.73
2018-04-27T16:03:47.657Z,33.91
2018-04-27T16:06:50.255Z,34.11
2018-04-27T16:09:53.560Z,33.49
2018-04-27T16:12:56.180Z,33.44
2018-04-27T16:15:58.709Z,34.37
2018-04-27T16:19:02.668Z,36.36
2018-04-27T16:22:05.267Z,34.03
2018-04-27T16:25:07.926Z,34.88
2018-04-27T16:28:10.517Z,35.23
2018-04-27T16:31:14.030Z,34.64
2018-04-27T16:34:16.684Z,34.58
2018-04-27T16:37:19.742Z,34.90
2018-04-27T16:40:22.801Z,35.71
2018-04-27T16:43:25.446Z,35.38
2018-04-27T16:46:28.050Z,36.03
2018-04-27T16:49:30.706Z,33.86
2018-04-27T16:52:33.312Z,33.62
2018-04-27T16:55:35.913Z,34.89
2018-04-27T16:58:38.584Z,35.04
2018-04-27T17:01:41.600Z,34.67
2018-04-27T17:04:44.220Z,34.75
2018-04-27T17:07:47.695Z,34.00
2018-04-27T17:10:50.284Z,34.43
2018-04-27T17:13:54.360Z,36.70
2018-04-27T17:16:57.076Z,37.43
2018-04-27T17:19:59.675Z,35.48
2018-04-27T17:23:02.278Z,36.24
2018-04-27T17:26:04.969Z,36.46
2018-04-27T17:29:07.641Z,37.03
2018-04-27T17:32:10.228Z,36.76
2018-04-27T17:35:12.907Z,38.01
2018-04-27T17:38:15.421Z,38.10
2018-04-27T17:41:17.973Z,38.58
2018-04-27T17:44:20.684Z,38.88
2018-04-27T17:47:23.218Z,38.99
2018-04-27T17:50:25.793Z,39.12
2018-04-27T17:53:28.510Z,38.55
2018-04-27T17:56:31.835Z,38.81
2018-04-27T17:59:34.498Z,39.66
2018-04-27T18:02:38.138Z,40.05
2018-04-27T18:05:40.697Z,40.92
2018-04-27T18:08:43.480Z,40.95
2018-04-27T18:11:46.409Z,41.73
2018-04-27T18:14:48.928Z,41.77
2018-04-27T18:17:51.631Z,42.07
2018-04-27T18:20:54.210Z,42.18
2018-04-27T18:23:56.872Z,43.73
2018-04-27T18:26:59.528Z,43.95
2018-04-27T18:30:02.129Z,42.96
2018-04-27T18:33:04.756Z,43.07
2018-04-27T18:36:08.703Z,43.67
2018-04-27T18:39:11.385Z,43.81
2018-04-27T18:42:14.042Z,44.12
2018-04-27T18:45:16.686Z,44.72
2018-04-27T18:48:20.179Z,45.06
2018-04-27T18:51:22.963Z,45.57
2018-04-27T18:54:25.729Z,45.56
2018-04-27T18:57:29.704Z,45.98
2018-04-27T19:00:33.380Z,45.87
2018-04-27T19:03:35.980Z,47.02
2018-04-27T19:06:38.812Z,47.29
2018-04-27T19:09:42.473Z,46.91
2018-04-27T19:12:45.518Z,47.74
2018-04-27T19:15:48.348Z,46.90
2018-04-27T19:18:50.974Z,48.88
2018-04-27T19:21:53.590Z,48.53
2018-04-27T19:24:57.169Z,48.87
2018-04-27T19:27:59.823Z,49.12
2018-04-27T19:31:02.462Z,49.45
2018-04-27T19:34:05.075Z,49.37
2018-04-27T19:37:07.777Z,50.06
2018-04-27T19:40:10.334Z,49.61
2018-04-27T19:43:12.913Z,50.37
2018-04-27T19:46:15.561Z,51.00
2018-04-27T19:49:18.190Z,51.58
2018-04-27T19:52:21.400Z,50.97
2018-04-27T19:55:24.134Z,51.90
2018-04-27T19:58:26.686Z,51.89
2018-04-27T20:01:29.341Z,52.12
2018-04-27T20:04:31.918Z,52.21
2018-04-27T20:07:34.456Z,51.75
2018-04-27T20:10:38.888Z,52.25
2018-04-27T20:13:41.373Z,52.40
2018-04-27T20:16:44.078Z,51.83
2018-04-27T20:19:47.784Z,52.11
2018-04-27T20:22:50.398Z,52.77
2018-04-27T20:25:55.409Z,53.15
2018-04-27T20:28:58.036Z,53.40
2018-04-27T20:32:00.719Z,53.80
2018-04-27T20:35:09.854Z,52.83
2018-04-27T20:38:21.082Z,53.55
2018-04-27T20:41:26.498Z,54.02
2018-04-27T20:44:29.156Z,53.40
2018-04-27T20:47:32.523Z,53.49
2018-04-27T20:50:35.113Z,53.76
2018-04-27T20:57:16.044Z,54.02
2018-04-27T21:00:18.580Z,54.30
2018-04-27T21:03:21.207Z,55.58
2018-04-27T21:06:23.870Z,54.77
2018-04-27T21:09:26.391Z,55.40
2018-04-27T21:12:28.953Z,54.93
2018-04-27T21:15:31.480Z,55.51
2018-04-27T21:18:34.046Z,55.49
2018-04-27T21:21:36.575Z,56.02
2018-04-27T21:24:39.124Z,55.89
2018-04-27T21:27:43.236Z,56.55
2018-04-27T21:30:46.346Z,56.03
2018-04-27T21:33:51.667Z,56.07
2018-04-27T21:36:54.304Z,55.51
2018-04-27T21:39:56.803Z,56.59
2018-04-27T21:42:59.369Z,56.43
2018-04-27T21:46:01.895Z,55.80
2018-04-27T21:52:47.935Z,56.34
2018-04-27T21:55:50.461Z,56.66
2018-04-27T21:58:54.380Z,55.93
2018-04-27T22:01:56.967Z,56.49
2018-04-27T22:05:11.113Z,56.13
2018-04-27T22:08:21.140Z,56.19
2018-04-27T22:11:39.455Z,56.37
2018-04-27T22:14:41.975Z,55.95
2018-04-27T22:17:45.348Z,56.13
2018-04-27T22:20:49.261Z,56.69
2018-04-27T22:23:58.707Z,56.34
2018-04-27T22:27:03.630Z,56.68
2018-04-27T22:33:41.570Z,57.24
2018-04-27T22:36:44.900Z,57.71
2018-04-27T22:39:49.070Z,57.47
2018-04-27T22:42:54.156Z,57.50
2018-04-27T22:46:16.260Z,58.33
2018-04-27T22:49:19.625Z,58.33
2018-04-27T22:52:22.158Z,57.58
2018-04-27T22:55:24.701Z,58.45
2018-04-27T22:58:27.214Z,58.54
2018-04-27T23:01:29.876Z,58.38
2018-04-27T23:04:32.363Z,58.60
2018-04-27T23:07:37.688Z,58.90
2018-04-27T23:10:50.554Z,59.26
2018-04-27T23:17:30.006Z,59.33
2018-04-27T23:20:32.449Z,58.41
2018-04-27T23:23:35.023Z,58.76
2018-04-27T23:26:37.507Z,58.87
2018-04-27T23:29:40.047Z,59.46
2018-04-27T23:32:42.568Z,59.86
2018-04-27T23:35:50.598Z,59.34
2018-04-27T23:38:53.167Z,59.11
2018-04-27T23:41:55.700Z,59.52
2018-04-27T23:44:58.193Z,59.08
2018-04-27T23:48:00.712Z,59.74
2018-04-27T23:51:03.281Z,58.94
2018-04-27T23:54:05.922Z,59.39
2018-04-27T23:57:08.503Z,59.58
